createdAt,value
2023-03-29T00:06:50.577Z,100647.66
2023-03-29T00:17:02.898Z,100651.88
2023-03-29T00:27:09.778Z,100650.06
2023-03-29T00:37:19.015Z,100635.09
2023-03-29T00:47:32.762Z,100626.50
2023-03-29T00:57:39.716Z,100625.84
2023-03-29T01:07:53.783Z,100610.22
2023-03-29T01:17:58.361Z,100604.94
2023-03-29T01:28:26.776Z,100608.28
2023-03-29T01:38:43.227Z,100591.94
2023-03-29T01:48:58.136Z,100601.59
2023-03-29T01:59:09.463Z,100605.03
2023-03-29T02:09:12.885Z,100598.91
2023-03-29T02:19:18.900Z,100604.09
2023-03-29T02:29:22.308Z,100610.84
2023-03-29T02:39:29.150Z,100609.00
2023-03-29T02:49:38.534Z,100607.34
2023-03-29T02:59:44.226Z,100608.97
2023-03-29T03:09:49.940Z,100622.91
2023-03-29T03:19:53.275Z,100621.84
2023-03-29T03:30:00.178Z,100614.94
2023-03-29T03:40:28.321Z,100622.97
2023-03-29T03:50:44.029Z,100635.53
2023-03-29T04:00:50.415Z,100623.63
2023-03-29T04:11:09.242Z,100606.56
2023-03-29T04:21:13.988Z,100596.19
2023-03-29T04:31:21.977Z,100583.16
2023-03-29T04:41:32.729Z,100589.38
2023-03-29T04:51:51.015Z,100580.69
2023-03-29T05:01:58.075Z,100582.47
2023-03-29T05:12:01.504Z,100584.31
2023-03-29T05:22:09.847Z,100580.03
2023-03-29T05:32:13.632Z,100556.59
2023-03-29T05:42:19.342Z,100536.53
2023-03-29T05:52:28.678Z,100494.84
2023-03-29T06:02:31.892Z,100555.66
2023-03-29T06:12:35.617Z,100541.75
2023-03-29T06:22:40.054Z,100551.19
2023-03-29T06:32:43.256Z,100549.22
2023-03-29T06:42:59.460Z,100562.25
2023-03-29T07:03:34.956Z,100550.56
2023-03-29T07:13:40.298Z,100558.66
2023-03-29T07:23:44.401Z,100565.88
2023-03-29T07:33:52.570Z,100558.03
2023-03-29T07:43:55.907Z,100533.44
2023-03-29T07:54:00.765Z,100549.00
2023-03-29T08:04:15.999Z,100538.13
2023-03-29T08:14:37.219Z,100527.06
2023-03-29T08:24:47.081Z,100503.78
2023-03-29T08:34:51.008Z,100525.50
2023-03-29T08:45:01.379Z,100518.00
2023-03-29T08:55:15.564Z,100516.78
2023-03-29T09:05:48.262Z,100512.69
2023-03-29T09:16:38.057Z,100514.38
2023-03-29T09:26:54.840Z,100510.84
2023-03-29T09:37:34.748Z,100482.78
2023-03-29T09:47:53.157Z,100509.38
2023-03-29T09:58:00.700Z,100498.47
2023-03-29T10:08:20.015Z,100477.25
2023-03-29T10:18:26.538Z,100468.00
2023-03-29T10:28:31.676Z,100457.06
2023-03-29T10:38:36.423Z,100457.88
2023-03-29T10:48:45.973Z,100447.38
2023-03-29T10:59:01.184Z,100433.34
2023-03-29T11:09:16.296Z,100396.56
2023-03-29T11:19:57.622Z,100416.19
2023-03-29T11:30:19.156Z,100368.22
2023-03-29T11:41:02.591Z,100376.72
2023-03-29T11:51:13.339Z,100347.91
2023-03-29T12:01:24.982Z,100340.81
2023-03-29T12:11:40.843Z,100308.56
2023-03-29T12:21:46.253Z,100327.00
2023-03-29T12:32:06.407Z,100320.41
2023-03-29T12:42:21.801Z,100314.97
2023-03-29T12:53:47.895Z,100313.34
2023-03-29T13:04:01.788Z,100312.06
2023-03-29T13:14:18.185Z,100306.81
2023-03-29T13:25:11.641Z,100283.34
2023-03-29T13:35:46.856Z,100307.78
2023-03-29T13:56:25.621Z,100267.75
2023-03-29T14:06:33.320Z,100250.06
2023-03-29T14:16:39.127Z,100231.97
2023-03-29T14:26:46.043Z,100261.22
2023-03-29T14:36:50.062Z,100242.13
2023-03-29T14:46:54.410Z,100252.97
2023-03-29T14:56:58.146Z,100225.59
2023-03-29T15:07:01.279Z,100237.63
2023-03-29T15:17:22.766Z,100184.00
2023-03-29T15:27:25.702Z,100195.63
2023-03-29T15:37:28.490Z,100180.16
2023-03-29T15:47:31.394Z,100145.34
2023-03-29T15:57:34.642Z,100156.25
2023-03-29T16:07:37.640Z,100136.19
2023-03-29T16:17:40.296Z,100174.94
2023-03-29T16:27:44.113Z,100119.69
2023-03-29T16:37:46.820Z,100133.66
2023-03-29T16:47:49.347Z,100130.03
2023-03-29T16:57:52.548Z,100167.50
2023-03-29T17:07:58.081Z,100158.78
2023-03-29T17:18:00.746Z,100135.63
2023-03-29T17:28:03.959Z,100188.84
2023-03-29T17:38:06.631Z,100142.31
2023-03-29T17:48:09.170Z,100190.19
2023-03-29T17:58:11.908Z,100149.25
2023-03-29T18:08:15.065Z,100139.69
2023-03-29T18:18:17.756Z,100194.56
2023-03-29T18:28:20.651Z,100188.56
2023-03-29T18:38:23.235Z,100235.75
2023-03-29T18:48:27.401Z,100170.25
2023-03-29T18:58:30.966Z,100187.47
2023-03-29T19:08:35.495Z,100188.59
2023-03-29T19:18:38.441Z,100240.91
2023-03-29T19:28:42.128Z,100205.16
2023-03-29T19:38:48.164Z,100204.63
2023-03-29T19:48:55.788Z,100217.16
2023-03-29T19:59:21.825Z,100204.91
2023-03-29T20:09:38.265Z,100224.53
2023-03-29T20:19:44.142Z,100171.19
2023-03-29T20:29:47.695Z,100229.06
2023-03-29T20:39:50.591Z,100172.31
2023-03-29T20:49:56.839Z,100183.19
2023-03-29T20:59:59.283Z,100178.06
2023-03-29T21:10:02.754Z,100164.06
2023-03-29T21:20:10.362Z,100170.53
2023-03-29T21:30:13.193Z,100169.25
2023-03-29T21:40:15.779Z,100162.94
2023-03-29T21:50:18.522Z,100121.22
2023-03-29T22:00:22.348Z,100148.84
2023-03-29T22:10:25.419Z,100149.84
2023-03-29T22:20:28.055Z,100136.50
2023-03-29T22:30:31.072Z,100146.28
2023-03-29T22:40:33.548Z,100133.00
2023-03-29T22:50:37.042Z,100131.88
2023-03-29T23:00:39.533Z,100087.63
2023-03-29T23:10:42.343Z,100124.88
2023-03-29T23:20:47.241Z,100118.94
2023-03-29T23:31:09.499Z,100107.63
2023-03-29T23:41:13.688Z,100106.88
2023-03-29T23:51:23.052Z,100064.50
